createdAt,value
2023-02-23T00:02:13.083Z,99659.94
2023-02-23T00:04:42.349Z,99649.53
2023-02-23T00:07:10.644Z,99649.56
2023-02-23T00:09:39.485Z,99639.97
2023-02-23T00:12:10.428Z,99645.28
2023-02-23T00:14:38.682Z,99647.00
2023-02-23T00:17:14.871Z,99643.53
2023-02-23T00:19:44.151Z,99645.22
2023-02-23T00:22:13.007Z,99643.44
2023-02-23T00:24:43.147Z,99637.31
2023-02-23T00:27:10.826Z,99639.13
2023-02-23T00:29:40.819Z,99636.56
2023-02-23T00:32:08.502Z,99636.63
2023-02-23T00:34:37.078Z,99636.63
2023-02-23T00:37:04.727Z,99637.53
2023-02-23T00:39:32.275Z,99633.22
2023-02-23T00:42:03.816Z,99633.22
2023-02-23T00:44:34.074Z,99641.91
2023-02-23T00:47:02.206Z,99640.19
2023-02-23T00:49:29.780Z,99631.50
2023-02-23T00:51:57.158Z,99628.91
2023-02-23T00:54:24.700Z,99628.06
2023-02-23T00:56:54.116Z,99633.25
2023-02-23T00:59:21.685Z,99629.78
2023-02-23T01:01:52.806Z,99625.44
2023-02-23T01:04:20.123Z,99633.22
2023-02-23T01:06:47.544Z,99624.59
2023-02-23T01:09:28.710Z,99625.47
2023-02-23T01:11:57.442Z,99620.25
2023-02-23T01:14:25.367Z,99625.47
2023-02-23T01:16:53.947Z,99627.19
2023-02-23T01:19:22.578Z,99624.59
2023-02-23T01:21:52.178Z,99617.66
2023-02-23T01:24:20.844Z,99618.50
2023-02-23T01:26:54.286Z,99615.06
2023-02-23T01:29:22.713Z,99613.31
2023-02-23T01:31:53.160Z,99620.25
2023-02-23T01:34:21.948Z,99610.72
2023-02-23T01:36:50.422Z,99611.59
2023-02-23T01:39:23.447Z,99609.00
2023-02-23T01:41:52.823Z,99604.66
2023-02-23T01:44:20.309Z,99610.72
2023-02-23T01:46:49.620Z,99606.38
2023-02-23T01:49:23.701Z,99607.25
2023-02-23T01:52:04.887Z,99595.97
2023-02-23T01:54:36.671Z,99594.25
2023-02-23T01:57:06.823Z,99583.84
2023-02-23T01:59:36.685Z,99585.56
2023-02-23T02:02:06.496Z,99589.03
2023-02-23T02:04:44.802Z,99596.84
2023-02-23T02:07:23.651Z,99582.97
2023-02-23T02:10:11.326Z,99591.66
2023-02-23T02:12:44.678Z,99588.19
2023-02-23T02:15:17.706Z,99589.06
2023-02-23T02:18:09.553Z,99588.19
2023-02-23T02:21:12.120Z,99587.31
2023-02-23T02:24:09.887Z,99588.19
2023-02-23T02:26:54.769Z,99577.75
2023-02-23T02:29:56.343Z,99581.22
2023-02-23T02:32:26.211Z,99580.38
2023-02-23T02:35:06.033Z,99579.50
2023-02-23T02:37:56.966Z,99586.41
2023-02-23T02:40:53.647Z,99574.28
2023-02-23T02:43:43.176Z,99572.53
2023-02-23T02:46:37.472Z,99566.47
2023-02-23T02:49:26.884Z,99574.22
2023-02-23T02:52:06.070Z,99567.28
2023-02-23T02:54:40.270Z,99571.63
2023-02-23T02:57:15.204Z,99571.56
2023-02-23T03:00:08.219Z,99571.56
2023-02-23T03:02:56.573Z,99577.66
2023-02-23T03:05:55.254Z,99575.06
2023-02-23T03:08:59.994Z,99567.31
2023-02-23T03:11:55.768Z,99574.22
2023-02-23T03:14:58.158Z,99574.22
2023-02-23T03:18:06.670Z,99566.38
2023-02-23T03:21:04.523Z,99569.84
2023-02-23T03:24:20.344Z,99571.56
2023-02-23T03:27:17.737Z,99576.00
2023-02-23T03:30:22.243Z,99570.78
2023-02-23T03:33:15.077Z,99567.28
2023-02-23T03:36:19.549Z,99568.16
2023-02-23T03:39:27.746Z,99567.28
2023-02-23T03:42:16.966Z,99562.94
2023-02-23T03:45:18.243Z,99572.50
2023-02-23T03:48:05.527Z,99559.47
2023-02-23T03:51:00.012Z,99562.97
2023-02-23T03:53:54.785Z,99569.91
2023-02-23T03:56:45.348Z,99573.38
2023-02-23T03:59:37.000Z,99576.84
2023-02-23T04:02:25.282Z,99568.19
2023-02-23T04:05:15.564Z,99576.88
2023-02-23T04:08:04.760Z,99573.34
2023-02-23T04:10:53.726Z,99575.09
2023-02-23T04:13:25.148Z,99585.53
2023-02-23T04:16:00.682Z,99573.34
2023-02-23T04:18:37.732Z,99573.38
2023-02-23T04:21:06.525Z,99581.19
2023-02-23T04:23:36.648Z,99562.09
2023-02-23T04:26:05.415Z,99569.09
2023-02-23T04:28:32.463Z,99572.53
2023-02-23T04:31:02.591Z,99573.41
2023-02-23T04:33:30.062Z,99576.84
2023-02-23T04:35:58.499Z,99576.88
2023-02-23T04:38:25.943Z,99576.84
2023-02-23T04:40:53.409Z,99574.28
2023-02-23T04:43:22.967Z,99577.72
2023-02-23T04:45:51.862Z,99562.09
2023-02-23T04:48:19.576Z,99569.06
2023-02-23T04:50:53.351Z,99568.19
2023-02-23T04:53:20.969Z,99573.38
2023-02-23T04:55:48.400Z,99569.94
2023-02-23T04:58:17.396Z,99573.38
2023-02-23T05:00:45.897Z,99570.81
2023-02-23T05:03:13.084Z,99576.03
2023-02-23T05:05:41.242Z,99569.94
2023-02-23T05:08:08.780Z,99563.91
2023-02-23T05:10:37.347Z,99576.00
2023-02-23T05:13:05.216Z,99569.94
2023-02-23T05:15:32.868Z,99570.81
2023-02-23T05:18:00.252Z,99571.69
2023-02-23T05:20:28.628Z,99569.94
2023-02-23T05:22:56.025Z,99569.97
2023-02-23T05:25:23.506Z,99564.75
2023-02-23T05:27:51.178Z,99567.38
2023-02-23T05:30:19.482Z,99569.09
2023-02-23T05:32:46.849Z,99571.69
2023-02-23T05:35:14.288Z,99569.94
2023-02-23T05:37:41.830Z,99568.25
2023-02-23T05:40:09.586Z,99569.09
2023-02-23T05:42:38.689Z,99561.31
2023-02-23T05:45:07.473Z,99563.91
2023-02-23T05:47:38.953Z,99563.03
2023-02-23T05:50:12.542Z,99566.50
2023-02-23T05:52:45.511Z,99566.50
2023-02-23T05:55:13.564Z,99568.25
2023-02-23T05:57:44.114Z,99566.50
2023-02-23T06:00:19.365Z,99567.38
2023-02-23T06:02:46.453Z,99569.97
2023-02-23T06:05:14.372Z,99575.19
2023-02-23T06:07:42.579Z,99575.19
2023-02-23T06:10:10.436Z,99576.03
2023-02-23T06:12:37.532Z,99575.19
2023-02-23T06:15:12.258Z,99577.75
2023-02-23T06:17:39.526Z,99577.78
2023-02-23T06:20:07.587Z,99581.22
2023-02-23T06:22:36.054Z,99576.88
2023-02-23T06:25:05.257Z,99582.97
2023-02-23T06:27:34.466Z,99586.41
2023-02-23T06:30:01.969Z,99586.41
2023-02-23T06:32:29.514Z,99589.03
2023-02-23T06:34:58.275Z,99587.25
2023-02-23T06:37:25.487Z,99587.25
2023-02-23T06:39:52.574Z,99581.19
2023-02-23T06:42:20.044Z,99584.66
2023-02-23T06:44:47.484Z,99569.94
2023-02-23T06:47:14.922Z,99589.84
2023-02-23T06:49:42.413Z,99579.41
2023-02-23T06:52:10.707Z,99579.41
2023-02-23T06:54:41.998Z,99575.94
2023-02-23T06:57:10.386Z,99582.88
2023-02-23T06:59:37.846Z,99573.31
2023-02-23T07:02:07.942Z,99565.53
2023-02-23T07:04:35.303Z,99572.44
2023-02-23T07:07:04.028Z,99574.19
2023-02-23T07:09:31.720Z,99578.50
2023-02-23T07:11:59.680Z,99577.59
2023-02-23T07:14:27.444Z,99575.00
2023-02-23T07:16:54.856Z,99573.25
2023-02-23T07:19:28.623Z,99574.97
2023-02-23T07:21:57.078Z,99566.28
2023-02-23T07:24:27.715Z,99558.41
2023-02-23T07:26:55.548Z,99567.97
2023-02-23T07:29:28.386Z,99557.50
2023-02-23T07:31:56.387Z,99560.06
2023-02-23T07:34:23.834Z,99554.81
2023-02-23T07:36:51.195Z,99554.78
2023-02-23T07:39:18.793Z,99553.06
2023-02-23T07:41:47.222Z,99552.06
2023-02-23T07:44:14.571Z,99550.25
2023-02-23T07:46:42.149Z,99551.19
2023-02-23T07:49:10.615Z,99549.41
2023-02-23T07:51:39.669Z,99546.81
2023-02-23T07:54:10.150Z,99544.06
2023-02-23T07:56:37.630Z,99538.75
2023-02-23T07:59:06.072Z,99543.09
2023-02-23T08:01:33.524Z,99538.63
2023-02-23T08:04:01.230Z,99542.81
2023-02-23T08:06:30.934Z,99545.44
2023-02-23T08:09:03.179Z,99533.00
2023-02-23T08:11:30.660Z,99539.78
2023-02-23T08:14:02.936Z,99544.03
2023-02-23T08:16:32.313Z,99547.25
2023-02-23T08:19:00.930Z,99541.09
2023-02-23T08:21:30.512Z,99545.38
2023-02-23T08:23:59.246Z,99551.13
2023-02-23T08:26:27.068Z,99551.25
2023-02-23T08:28:55.364Z,99549.66
2023-02-23T08:31:24.938Z,99546.13
2023-02-23T08:33:53.764Z,99545.19
2023-02-23T08:36:23.080Z,99538.22
2023-02-23T08:38:51.556Z,99535.56
2023-02-23T08:41:19.077Z,99542.41
2023-02-23T08:43:46.680Z,99548.56
2023-02-23T08:46:16.935Z,99540.75
2023-02-23T08:48:44.346Z,99538.09
2023-02-23T08:51:11.833Z,99540.47
2023-02-23T08:53:39.251Z,99535.13
2023-02-23T08:56:13.685Z,99536.06
2023-02-23T08:58:43.039Z,99537.81
2023-02-23T09:01:24.585Z,99542.91
2023-02-23T09:03:51.821Z,99534.75
2023-02-23T09:06:21.387Z,99530.84
2023-02-23T09:08:48.703Z,99523.91
2023-02-23T09:11:16.097Z,99526.22
2023-02-23T09:13:44.091Z,99530.19
2023-02-23T09:16:11.643Z,99523.66
2023-02-23T09:18:39.534Z,99535.53
2023-02-23T09:21:19.389Z,99526.63
2023-02-23T09:23:48.551Z,99517.94
2023-02-23T09:26:18.204Z,99522.72
2023-02-23T09:28:46.815Z,99522.72
2023-02-23T09:31:18.382Z,99526.63
2023-02-23T09:33:46.947Z,99522.38
2023-02-23T09:36:16.848Z,99518.19
2023-02-23T09:38:46.021Z,99507.16
2023-02-23T09:41:51.975Z,99513.97
2023-02-23T09:44:48.395Z,99511.56
2023-02-23T09:47:40.660Z,99517.31
2023-02-23T09:50:22.897Z,99519.97
2023-02-23T09:52:57.104Z,99513.59
2023-02-23T09:55:26.029Z,99514.19
2023-02-23T09:57:59.436Z,99514.72
2023-02-23T10:00:30.168Z,99509.13
2023-02-23T10:03:29.315Z,99506.25
2023-02-23T10:06:02.034Z,99502.94
2023-02-23T10:09:06.722Z,99507.22
2023-02-23T10:11:56.699Z,99500.06
2023-02-23T10:14:38.558Z,99498.34
2023-02-23T10:17:21.821Z,99495.09
2023-02-23T10:20:15.189Z,99497.16
2023-02-23T10:22:45.187Z,99498.53
2023-02-23T10:25:36.452Z,99492.34
2023-02-23T10:28:04.325Z,99482.22
2023-02-23T10:30:34.542Z,99480.69
2023-02-23T10:33:18.654Z,99474.69
2023-02-23T10:36:12.563Z,99470.41
2023-02-23T10:38:41.421Z,99474.44
2023-02-23T10:41:10.953Z,99464.41
2023-02-23T10:43:39.209Z,99465.16
2023-02-23T10:46:07.679Z,99461.44
2023-02-23T10:48:41.366Z,99460.59
2023-02-23T10:51:16.842Z,99465.72
2023-02-23T10:53:44.100Z,99456.25
2023-02-23T10:56:15.345Z,99458.78
2023-02-23T10:58:49.538Z,99457.38
2023-02-23T11:01:33.468Z,99448.50
2023-02-23T11:04:14.296Z,99453.19
2023-02-23T11:06:43.272Z,99442.94
2023-02-23T11:09:44.581Z,99431.03
2023-02-23T11:12:37.281Z,99434.00
2023-02-23T11:15:38.881Z,99426.34
2023-02-23T11:18:22.563Z,99416.38
2023-02-23T11:20:51.385Z,99420.22
2023-02-23T11:23:29.624Z,99416.50
2023-02-23T11:26:02.791Z,99415.56
2023-02-23T11:28:35.248Z,99412.19
2023-02-23T11:31:16.248Z,99412.63
2023-02-23T11:33:44.477Z,99405.34
2023-02-23T11:36:17.881Z,99398.41
2023-02-23T11:38:48.143Z,99408.50
2023-02-23T11:41:24.378Z,99399.19
2023-02-23T11:43:56.949Z,99396.75
2023-02-23T11:46:26.481Z,99391.69
2023-02-23T11:49:00.177Z,99401.63
2023-02-23T11:51:30.721Z,99390.34
2023-02-23T11:53:59.833Z,99392.09
2023-02-23T11:56:29.418Z,99385.72
2023-02-23T11:59:16.647Z,99382.94
2023-02-23T12:01:50.193Z,99381.13
2023-02-23T12:04:31.400Z,99377.66
2023-02-23T12:07:43.476Z,99371.78
2023-02-23T12:10:15.519Z,99367.97
2023-02-23T12:12:53.289Z,99362.59
2023-02-23T12:15:34.999Z,99363.00
2023-02-23T12:18:18.830Z,99358.69
2023-02-23T12:20:49.270Z,99356.72
2023-02-23T12:23:26.976Z,99350.94
2023-02-23T12:26:29.826Z,99348.78
2023-02-23T12:29:49.373Z,99341.66
2023-02-23T12:32:24.885Z,99337.00
2023-02-23T12:35:02.433Z,99331.34
2023-02-23T12:37:41.176Z,99331.22
2023-02-23T12:40:28.857Z,99336.59
2023-02-23T12:43:27.263Z,99330.31
2023-02-23T12:46:08.671Z,99326.16
2023-02-23T12:49:01.633Z,99315.91
2023-02-23T12:52:38.952Z,99319.78
2023-02-23T12:55:14.080Z,99316.09
2023-02-23T12:57:45.740Z,99303.19
2023-02-23T13:00:31.476Z,99301.41
2023-02-23T13:03:17.796Z,99302.69
2023-02-23T13:06:04.514Z,99300.72
2023-02-23T13:09:11.048Z,99299.78
2023-02-23T13:11:56.723Z,99301.09
2023-02-23T13:14:34.066Z,99295.56
2023-02-23T13:17:09.575Z,99284.81
2023-02-23T13:19:50.589Z,99282.84
2023-02-23T13:22:47.284Z,99269.91
2023-02-23T13:25:54.330Z,99268.38
2023-02-23T13:28:57.189Z,99270.38
2023-02-23T13:31:34.602Z,99270.28
2023-02-23T13:34:03.939Z,99267.38
2023-02-23T13:36:36.939Z,99267.22
2023-02-23T13:39:20.333Z,99257.72
2023-02-23T13:42:21.025Z,99262.56
2023-02-23T13:45:20.686Z,99255.22
2023-02-23T13:48:07.329Z,99253.63
2023-02-23T13:50:48.330Z,99257.56
2023-02-23T13:53:37.530Z,99248.59
2023-02-23T13:56:09.073Z,99247.38
2023-02-23T13:58:37.423Z,99243.34
2023-02-23T14:01:21.226Z,99236.78
2023-02-23T14:03:54.411Z,99230.59
2023-02-23T14:06:26.028Z,99227.41
2023-02-23T14:09:08.571Z,99224.28
2023-02-23T14:11:53.955Z,99227.09
2023-02-23T14:14:34.596Z,99224.06
2023-02-23T14:17:12.434Z,99221.50
2023-02-23T14:20:03.585Z,99222.03
2023-02-23T14:22:34.746Z,99225.72
2023-02-23T14:25:32.977Z,99224.59
2023-02-23T14:28:22.398Z,99222.69
2023-02-23T14:31:14.220Z,99222.84
2023-02-23T14:33:46.268Z,99225.81
2023-02-23T14:36:22.918Z,99221.13
2023-02-23T14:39:07.377Z,99220.97
2023-02-23T14:41:34.680Z,99215.81
2023-02-23T14:44:29.831Z,99219.31
2023-02-23T14:47:16.486Z,99214.28
2023-02-23T14:49:51.590Z,99217.41
2023-02-23T14:52:35.565Z,99208.84
2023-02-23T14:55:29.974Z,99208.13
2023-02-23T14:58:04.801Z,99198.78
2023-02-23T15:00:41.493Z,99198.84
2023-02-23T15:03:12.987Z,99197.00
2023-02-23T15:05:55.078Z,99203.22
2023-02-23T15:08:25.982Z,99196.78
2023-02-23T15:11:13.545Z,99193.81
2023-02-23T15:13:47.697Z,99186.50
2023-02-23T15:16:24.561Z,99185.41
2023-02-23T15:19:34.395Z,99181.28
2023-02-23T15:22:03.953Z,99190.28
2023-02-23T15:24:43.325Z,99183.78
2023-02-23T15:27:26.206Z,99181.38
2023-02-23T15:29:55.869Z,99173.84
2023-02-23T15:32:26.655Z,99174.41
2023-02-23T15:35:04.074Z,99173.75
2023-02-23T15:37:56.593Z,99173.00
2023-02-23T15:40:33.774Z,99165.97
2023-02-23T15:43:01.854Z,99164.59
2023-02-23T15:45:30.444Z,99162.84
2023-02-23T15:48:03.682Z,99167.28
2023-02-23T15:50:37.279Z,99169.34
2023-02-23T15:53:13.776Z,99166.00
2023-02-23T15:55:44.659Z,99166.13
2023-02-23T15:58:25.553Z,99161.00
2023-02-23T16:01:29.186Z,99164.63
2023-02-23T16:04:02.832Z,99164.13
2023-02-23T16:06:35.389Z,99159.75
2023-02-23T16:09:20.466Z,99159.88
2023-02-23T16:11:52.885Z,99159.94
2023-02-23T16:14:22.704Z,99164.59
2023-02-23T16:17:08.367Z,99169.16
2023-02-23T16:19:41.733Z,99158.88
2023-02-23T16:22:20.696Z,99160.00
2023-02-23T16:24:58.076Z,99167.16
2023-02-23T16:27:27.246Z,99160.31
2023-02-23T16:30:31.687Z,99162.16
2023-02-23T16:33:23.038Z,99158.75
2023-02-23T16:36:15.097Z,99168.72
2023-02-23T16:39:00.662Z,99170.84
2023-02-23T16:41:31.622Z,99166.50
2023-02-23T16:44:02.828Z,99170.13
2023-02-23T16:46:33.898Z,99169.19
2023-02-23T16:49:12.784Z,99181.56
2023-02-23T16:51:40.940Z,99172.28
2023-02-23T16:54:09.018Z,99180.41
2023-02-23T16:56:40.337Z,99174.53
2023-02-23T16:59:11.258Z,99174.66
2023-02-23T17:01:39.022Z,99169.38
2023-02-23T17:04:15.906Z,99175.78
2023-02-23T17:06:45.290Z,99169.78
2023-02-23T17:09:13.844Z,99169.66
2023-02-23T17:11:42.913Z,99171.66
2023-02-23T17:14:20.666Z,99172.03
2023-02-23T17:16:48.982Z,99172.84
2023-02-23T17:19:19.427Z,99166.09
2023-02-23T17:21:49.112Z,99173.16
2023-02-23T17:24:17.538Z,99182.19
2023-02-23T17:26:46.325Z,99178.56
2023-02-23T17:29:15.001Z,99185.56
2023-02-23T17:31:42.847Z,99177.84
2023-02-23T17:34:16.529Z,99171.09
2023-02-23T17:36:47.089Z,99169.53
2023-02-23T17:39:18.041Z,99172.84
2023-02-23T17:41:47.119Z,99177.56
2023-02-23T17:44:15.057Z,99171.09
2023-02-23T17:46:44.645Z,99170.69
2023-02-23T17:49:14.434Z,99168.78
2023-02-23T17:51:43.942Z,99170.78
2023-02-23T17:54:14.536Z,99169.59
2023-02-23T17:56:44.503Z,99166.13
2023-02-23T17:59:12.297Z,99162.66
2023-02-23T18:01:42.618Z,99159.63
2023-02-23T18:04:10.946Z,99153.03
2023-02-23T18:06:39.155Z,99161.88
2023-02-23T18:09:09.492Z,99162.97
2023-02-23T18:11:37.599Z,99161.16
2023-02-23T18:14:06.079Z,99155.63
2023-02-23T18:16:36.480Z,99147.88
2023-02-23T18:19:05.639Z,99152.56
2023-02-23T18:21:35.442Z,99145.69
2023-02-23T18:24:04.610Z,99150.53
2023-02-23T18:26:33.699Z,99143.66
2023-02-23T18:29:04.528Z,99146.22
2023-02-23T18:31:38.990Z,99145.34
2023-02-23T18:34:09.797Z,99140.91
2023-02-23T18:36:39.042Z,99156.47
2023-02-23T18:39:11.117Z,99147.09
2023-02-23T18:41:42.639Z,99147.28
2023-02-23T18:44:15.775Z,99142.84
2023-02-23T18:46:46.629Z,99145.31
2023-02-23T18:49:24.414Z,99148.06
2023-02-23T18:51:56.152Z,99145.63
2023-02-23T18:54:26.717Z,99141.34
2023-02-23T18:56:56.762Z,99143.09
2023-02-23T18:59:24.581Z,99138.53
2023-02-23T19:01:54.233Z,99138.31
2023-02-23T19:04:22.474Z,99132.06
2023-02-23T19:07:02.750Z,99133.16
2023-02-23T19:09:31.201Z,99132.72
2023-02-23T19:12:01.341Z,99128.63
2023-02-23T19:14:48.885Z,99127.16
2023-02-23T19:17:21.036Z,99128.00
2023-02-23T19:19:49.673Z,99129.84
2023-02-23T19:22:17.957Z,99124.31
2023-02-23T19:24:48.919Z,99120.25
2023-02-23T19:27:17.296Z,99126.72
2023-02-23T19:29:47.204Z,99120.09
2023-02-23T19:32:20.080Z,99123.72
2023-02-23T19:34:48.882Z,99119.25
2023-02-23T19:37:17.308Z,99131.91
2023-02-23T19:39:50.705Z,99123.59
2023-02-23T19:42:26.547Z,99120.28
2023-02-23T19:44:55.561Z,99116.47
2023-02-23T19:47:23.891Z,99129.56
2023-02-23T19:49:55.337Z,99120.00
2023-02-23T19:52:23.723Z,99122.69
2023-02-23T19:54:51.459Z,99121.09
2023-02-23T19:57:22.012Z,99118.56
2023-02-23T19:59:51.973Z,99126.00
2023-02-23T20:02:19.535Z,99117.09
2023-02-23T20:04:51.706Z,99117.22
2023-02-23T20:07:19.625Z,99118.28
2023-02-23T20:09:48.065Z,99121.91
2023-02-23T20:12:17.486Z,99122.00
2023-02-23T20:14:45.924Z,99118.47
2023-02-23T20:17:14.272Z,99111.88
2023-02-23T20:19:44.361Z,99113.59
2023-02-23T20:22:12.668Z,99111.13
2023-02-23T20:24:42.579Z,99109.63
2023-02-23T20:27:13.418Z,99105.13
2023-02-23T20:29:43.887Z,99108.75
2023-02-23T20:32:13.386Z,99103.50
2023-02-23T20:34:43.938Z,99090.28
2023-02-23T20:37:12.645Z,99088.41
2023-02-23T20:39:47.265Z,99084.88
2023-02-23T20:42:15.072Z,99082.25
2023-02-23T20:44:49.175Z,99084.41
2023-02-23T20:47:30.637Z,99080.47
2023-02-23T20:49:59.284Z,99084.00
2023-02-23T20:52:26.927Z,99077.19
2023-02-23T20:55:03.782Z,99075.81
2023-02-23T20:57:33.695Z,99075.31
2023-02-23T21:00:02.580Z,99070.91
2023-02-23T21:02:33.471Z,99077.38
2023-02-23T21:05:01.989Z,99073.03
2023-02-23T21:07:30.108Z,99070.63
2023-02-23T21:10:00.832Z,99069.78
2023-02-23T21:12:29.052Z,99073.59
2023-02-23T21:14:57.582Z,99071.75
2023-02-23T21:17:26.287Z,99067.97
2023-02-23T21:19:54.817Z,99073.13
2023-02-23T21:22:23.478Z,99066.25
2023-02-23T21:24:51.546Z,99062.31
2023-02-23T21:27:21.111Z,99064.41
2023-02-23T21:29:48.909Z,99062.44
2023-02-23T21:32:18.956Z,99062.78
2023-02-23T21:34:46.993Z,99055.59
2023-02-23T21:37:15.638Z,99059.25
2023-02-23T21:39:51.333Z,99052.28
2023-02-23T21:42:23.093Z,99047.91
2023-02-23T21:44:51.184Z,99049.72
2023-02-23T21:47:20.888Z,99042.44
2023-02-23T21:49:55.078Z,99035.72
2023-02-23T21:52:23.041Z,99046.88
2023-02-23T21:54:52.442Z,99047.91
2023-02-23T21:57:23.134Z,99041.56
2023-02-23T21:59:50.883Z,99038.91
2023-02-23T22:02:20.574Z,99035.13
2023-02-23T22:04:50.235Z,99040.09
2023-02-23T22:07:17.691Z,99033.25
2023-02-23T22:09:45.148Z,99026.53
2023-02-23T22:12:12.664Z,99026.28
2023-02-23T22:14:39.917Z,99034.09
2023-02-23T22:17:09.969Z,99027.56
2023-02-23T22:19:38.743Z,99023.19
2023-02-23T22:22:20.409Z,99026.09
2023-02-23T22:24:51.875Z,99020.06
2023-02-23T22:27:19.501Z,99024.91
2023-02-23T22:29:46.712Z,99025.56
2023-02-23T22:32:14.394Z,99009.66
2023-02-23T22:34:41.774Z,99015.09
2023-02-23T22:37:09.139Z,99008.16
2023-02-23T22:39:41.868Z,99010.78
2023-02-23T22:42:12.903Z,98997.41
2023-02-23T22:44:47.337Z,99004.53
2023-02-23T22:47:15.923Z,99002.78
2023-02-23T22:49:43.311Z,98994.91
2023-02-23T22:52:10.747Z,99000.53
2023-02-23T22:54:40.035Z,99001.03
2023-02-23T22:57:07.323Z,98998.47
2023-02-23T22:59:34.745Z,98996.44
2023-02-23T23:02:03.160Z,98989.63
2023-02-23T23:04:30.760Z,98987.88
2023-02-23T23:06:58.543Z,98990.88
2023-02-23T23:09:25.920Z,98983.09
2023-02-23T23:11:54.123Z,98983.44
2023-02-23T23:14:21.330Z,98981.91
2023-02-23T23:16:52.419Z,98977.09
2023-02-23T23:19:24.496Z,98977.72
2023-02-23T23:22:00.645Z,98968.56
2023-02-23T23:24:28.263Z,98960.38
2023-02-23T23:26:56.063Z,98961.44
2023-02-23T23:29:26.075Z,98956.00
2023-02-23T23:31:53.940Z,98953.28
2023-02-23T23:34:33.807Z,98952.94
2023-02-23T23:37:03.177Z,98950.38
2023-02-23T23:39:30.490Z,98958.09
2023-02-23T23:41:58.967Z,98951.69
2023-02-23T23:44:29.752Z,98953.91
2023-02-23T23:46:58.538Z,98947.50
2023-02-23T23:49:27.966Z,98945.78
2023-02-23T23:51:56.943Z,98935.19
2023-02-23T23:54:31.126Z,98935.19
2023-02-23T23:57:01.707Z,98931.16
2023-02-23T23:59:32.038Z,98928.47
